createdAt,value
2023-03-23T00:00:00.669Z,1.1
2023-03-23T00:01:00.676Z,1.1
2023-03-23T00:02:00.695Z,1.1
2023-03-23T00:03:00.695Z,1.1
2023-03-23T00:04:00.682Z,1.1
2023-03-23T00:05:00.663Z,1.1
2023-03-23T00:06:00.667Z,1.1
2023-03-23T00:07:00.695Z,1.1
2023-03-23T00:08:00.663Z,1.1
2023-03-23T00:09:00.674Z,1.1
2023-03-23T00:10:00.697Z,1.1
2023-03-23T00:11:00.686Z,1.1
2023-03-23T00:12:00.688Z,1.1
2023-03-23T00:13:00.705Z,1.1
2023-03-23T00:14:00.673Z,1.1
2023-03-23T00:15:00.689Z,1.1
2023-03-23T00:16:04.450Z,1.1
2023-03-23T00:17:00.691Z,1.1
2023-03-23T00:18:00.692Z,1.1
2023-03-23T00:19:00.674Z,1.1
2023-03-23T00:20:00.685Z,1.1
2023-03-23T00:21:00.684Z,1.1
2023-03-23T00:22:00.697Z,1.1
2023-03-23T00:23:00.700Z,1.1
2023-03-23T00:24:00.685Z,1.1
2023-03-23T00:25:00.817Z,1.1
2023-03-23T00:26:00.682Z,1.1
2023-03-23T00:27:00.666Z,1.1
2023-03-23T00:28:00.637Z,1.1
2023-03-23T00:29:00.589Z,1.1
2023-03-23T00:30:00.564Z,1.1
2023-03-23T00:31:00.529Z,1.1
2023-03-23T00:32:00.535Z,1.1
2023-03-23T00:33:00.496Z,1.1
2023-03-23T00:34:00.440Z,1.1
2023-03-23T00:35:00.419Z,1.1
2023-03-23T00:36:00.391Z,1.1
2023-03-23T00:37:00.356Z,1.1
2023-03-23T00:38:00.361Z,1.1
2023-03-23T00:39:00.361Z,1.1
2023-03-23T00:40:00.344Z,1.1
2023-03-23T00:41:00.362Z,1.1
2023-03-23T00:42:00.344Z,1.1
2023-03-23T00:43:00.365Z,1.1
2023-03-23T00:44:00.342Z,1.1
2023-03-23T00:45:00.358Z,1.1
2023-03-23T00:46:00.363Z,1.1
2023-03-23T00:47:00.342Z,1.1
2023-03-23T00:48:00.366Z,1.1
2023-03-23T00:49:00.346Z,1.1
2023-03-23T00:50:00.354Z,1.1
2023-03-23T00:51:00.371Z,1.1
2023-03-23T00:52:00.356Z,1.1
2023-03-23T00:53:00.381Z,1.1
2023-03-23T00:54:00.355Z,1.1
2023-03-23T00:55:00.360Z,1.1
2023-03-23T00:56:00.382Z,1.1
2023-03-23T00:57:00.354Z,1.1
2023-03-23T00:58:00.379Z,1.1
2023-03-23T00:59:00.356Z,1.1
2023-03-23T01:00:05.787Z,1.1
2023-03-23T01:01:00.387Z,1.1
2023-03-23T01:02:00.383Z,1.1
2023-03-23T01:03:00.382Z,1.1
2023-03-23T01:04:00.370Z,1.1
2023-03-23T01:05:00.364Z,1.1
2023-03-23T01:06:00.388Z,1.1
2023-03-23T01:07:00.363Z,1.1
2023-03-23T01:08:00.385Z,1.1
2023-03-23T01:09:00.369Z,1.1
2023-03-23T01:10:00.374Z,1.1
2023-03-23T01:11:00.387Z,1.1
2023-03-23T01:12:00.478Z,1.1
2023-03-23T01:13:00.405Z,1.1
2023-03-23T01:14:00.387Z,1.1
2023-03-23T01:15:00.374Z,1.1
2023-03-23T01:16:00.392Z,1.1
2023-03-23T01:17:00.379Z,1.1
2023-03-23T01:18:00.398Z,1.1
2023-03-23T01:19:00.395Z,1.1
2023-03-23T01:20:00.386Z,1.1
2023-03-23T01:21:00.403Z,1.1
2023-03-23T01:22:00.377Z,1.1
2023-03-23T01:23:00.412Z,1.1
2023-03-23T01:24:00.385Z,1.1
2023-03-23T01:25:00.387Z,1.1
2023-03-23T01:26:00.401Z,1.1
2023-03-23T01:27:00.387Z,1.1
2023-03-23T01:28:01.367Z,1.1
2023-03-23T01:29:00.391Z,1.1
2023-03-23T01:30:00.418Z,1.1
2023-03-23T01:31:00.409Z,1.1
2023-03-23T01:32:01.033Z,1.1
2023-03-23T01:33:00.435Z,1.1
2023-03-23T01:34:00.396Z,1.1
2023-03-23T01:35:00.413Z,1.1
2023-03-23T01:36:00.444Z,1.1
2023-03-23T01:37:00.394Z,1.1
2023-03-23T01:38:00.396Z,1.1
2023-03-23T01:39:00.399Z,1.1
2023-03-23T01:40:00.429Z,1.1
2023-03-23T01:41:00.433Z,1.1
2023-03-23T01:42:00.428Z,1.1
2023-03-23T01:43:00.413Z,1.1
2023-03-23T01:44:00.417Z,1.1
2023-03-23T01:45:00.427Z,1.1
2023-03-23T01:46:00.424Z,1.1
2023-03-23T01:47:00.532Z,1.1
2023-03-23T01:48:00.407Z,1.1
2023-03-23T01:49:00.411Z,1.1
2023-03-23T01:50:00.445Z,1.1
2023-03-23T01:51:00.434Z,1.1
2023-03-23T01:52:00.416Z,1.1
2023-03-23T01:53:00.417Z,1.1
2023-03-23T01:54:00.417Z,1.1
2023-03-23T01:55:00.450Z,1.1
2023-03-23T01:56:00.451Z,1.1
2023-03-23T01:57:01.281Z,1.1
2023-03-23T01:58:00.427Z,1.1
2023-03-23T01:59:00.498Z,1.1
2023-03-23T02:00:00.450Z,1.1
2023-03-23T02:01:01.320Z,1.1
2023-03-23T02:02:01.387Z,1.1
2023-03-23T02:03:00.786Z,1.1
2023-03-23T02:04:00.618Z,1.1
2023-03-23T02:05:00.638Z,1.1
2023-03-23T02:06:00.578Z,1.1
2023-03-23T02:07:00.538Z,1.1
2023-03-23T02:08:00.717Z,1.1
2023-03-23T02:09:00.649Z,1.1
2023-03-23T02:10:00.784Z,1.1
2023-03-23T02:11:00.518Z,1.1
2023-03-23T02:12:00.493Z,1.1
2023-03-23T02:13:00.494Z,1.1
2023-03-23T02:14:00.460Z,1.1
2023-03-23T02:15:00.478Z,1.1
2023-03-23T02:16:00.479Z,1.1
2023-03-23T02:17:00.474Z,1.1
2023-03-23T02:18:00.472Z,1.1
2023-03-23T02:19:00.462Z,1.1
2023-03-23T02:20:00.445Z,1.1
2023-03-23T02:21:00.485Z,1.1
2023-03-23T02:22:00.463Z,1.1
2023-03-23T02:23:00.500Z,1.1
2023-03-23T02:24:00.460Z,1.1
2023-03-23T02:25:00.479Z,1.1
2023-03-23T02:26:00.483Z,1.1
2023-03-23T02:27:00.463Z,1.1
2023-03-23T02:28:00.473Z,1.1
2023-03-23T02:29:00.472Z,1.1
2023-03-23T02:30:00.454Z,1.1
2023-03-23T02:31:00.514Z,1.1
2023-03-23T02:32:00.454Z,1.1
2023-03-23T02:33:00.456Z,1.1
2023-03-23T02:34:00.675Z,1.1
2023-03-23T02:35:00.457Z,1.1
2023-03-23T02:36:00.502Z,1.1
2023-03-23T02:37:00.463Z,1.1
2023-03-23T02:38:00.463Z,1.1
2023-03-23T02:39:00.461Z,1.1
2023-03-23T02:40:00.483Z,1.1
2023-03-23T02:41:00.502Z,1.1
2023-03-23T02:42:00.493Z,1.1
2023-03-23T02:43:00.483Z,1.1
2023-03-23T02:44:00.483Z,1.1
2023-03-23T02:45:00.496Z,1.1
2023-03-23T02:46:00.472Z,1.1
2023-03-23T02:47:00.496Z,1.1
2023-03-23T02:48:00.509Z,1.1
2023-03-23T02:49:00.483Z,1.1
2023-03-23T02:50:00.531Z,1.1
2023-03-23T02:51:00.493Z,1.1
2023-03-23T02:52:00.488Z,1.1
2023-03-23T02:53:00.501Z,1.1
2023-03-23T02:54:00.479Z,1.1
2023-03-23T02:55:00.494Z,1.1
2023-03-23T02:56:00.506Z,1.1
2023-03-23T02:57:00.493Z,1.1
2023-03-23T02:58:00.504Z,1.1
2023-03-23T02:59:00.479Z,1.1
2023-03-23T03:00:00.485Z,1.1
2023-03-23T03:01:01.273Z,1.1
2023-03-23T03:02:01.262Z,1.1
2023-03-23T03:03:01.285Z,1.1
2023-03-23T03:04:01.264Z,1.1
2023-03-23T03:05:01.268Z,1.1
2023-03-23T03:06:01.264Z,1.1
2023-03-23T03:07:01.299Z,1.1
2023-03-23T03:08:01.303Z,1.1
2023-03-23T03:09:01.293Z,1.1
2023-03-23T03:10:01.301Z,1.1
2023-03-23T03:11:01.300Z,1.1
2023-03-23T03:12:01.299Z,1.1
2023-03-23T03:13:01.299Z,1.1
2023-03-23T03:14:01.276Z,1.1
2023-03-23T03:15:01.335Z,1.1
2023-03-23T03:16:01.283Z,1.1
2023-03-23T03:17:01.278Z,1.1
2023-03-23T03:18:01.311Z,1.1
2023-03-23T03:19:01.303Z,1.1
2023-03-23T03:20:01.345Z,1.1
2023-03-23T03:21:01.284Z,1.1
2023-03-23T03:22:01.289Z,1.1
2023-03-23T03:23:01.314Z,1.1
2023-03-23T03:24:01.290Z,1.1
2023-03-23T03:25:01.294Z,1.1
2023-03-23T03:26:01.315Z,1.1
2023-03-23T03:27:01.289Z,1.1
2023-03-23T03:28:02.171Z,1.1
2023-03-23T03:29:01.331Z,1.1
2023-03-23T03:30:01.383Z,1.1
2023-03-23T03:31:01.300Z,1.1
2023-03-23T03:32:01.336Z,1.1
2023-03-23T03:33:01.323Z,1.1
2023-03-23T03:34:01.327Z,1.1
2023-03-23T03:35:01.301Z,1.1
2023-03-23T03:36:01.361Z,1.1
2023-03-23T03:37:01.310Z,1.1
2023-03-23T03:38:01.355Z,1.1
2023-03-23T03:39:01.353Z,1.1
2023-03-23T03:40:01.389Z,1.1
2023-03-23T03:41:01.349Z,1.1
2023-03-23T03:42:01.338Z,1.1
2023-03-23T03:43:01.326Z,1.1
2023-03-23T03:44:01.323Z,1.1
2023-03-23T03:45:01.325Z,1.1
2023-03-23T03:46:01.316Z,1.1
2023-03-23T03:47:01.340Z,1.1
2023-03-23T03:48:01.344Z,1.1
2023-03-23T03:49:01.350Z,1.1
2023-03-23T03:50:01.356Z,1.1
2023-03-23T03:51:01.324Z,1.1
2023-03-23T03:52:01.364Z,1.1
2023-03-23T03:53:01.333Z,1.1
2023-03-23T03:54:01.338Z,1.1
2023-03-23T03:55:01.345Z,1.1
2023-03-23T03:56:01.346Z,1.1
2023-03-23T03:57:01.327Z,1.1
2023-03-23T03:58:01.378Z,1.1
2023-03-23T03:59:21.692Z,1.1
2023-03-23T04:00:01.392Z,1.1
2023-03-23T04:01:01.355Z,1.1
2023-03-23T04:02:01.345Z,1.1
2023-03-23T04:03:01.347Z,1.1
2023-03-23T04:04:01.345Z,1.1
2023-03-23T04:05:01.361Z,1.1
2023-03-23T04:06:01.397Z,1.1
2023-03-23T04:07:01.354Z,1.1
2023-03-23T04:08:09.352Z,1.1
2023-03-23T04:09:07.819Z,1.1
2023-03-23T04:10:01.371Z,1.1
2023-03-23T04:11:01.365Z,1.1
2023-03-23T04:12:01.363Z,1.1
2023-03-23T04:13:01.372Z,1.1
2023-03-23T04:14:01.375Z,1.1
2023-03-23T04:15:06.252Z,1.1
2023-03-23T04:16:07.348Z,1.1
2023-03-23T04:17:01.356Z,1.1
2023-03-23T04:18:01.356Z,1.1
2023-03-23T04:19:01.363Z,1.1
2023-03-23T04:20:01.433Z,1.1
2023-03-23T04:21:01.396Z,1.1
2023-03-23T04:22:01.357Z,1.1
2023-03-23T04:23:01.365Z,1.1
2023-03-23T04:24:01.365Z,1.1
2023-03-23T04:25:01.358Z,1.1
2023-03-23T04:26:01.380Z,1.1
2023-03-23T04:27:02.847Z,1.1
2023-03-23T04:28:01.713Z,1.1
2023-03-23T04:29:01.360Z,1.1
2023-03-23T04:30:01.380Z,1.1
2023-03-23T04:31:01.384Z,1.1
2023-03-23T04:32:01.389Z,1.1
2023-03-23T04:33:01.388Z,1.1
2023-03-23T04:34:01.432Z,1.1
2023-03-23T04:35:13.029Z,1.1
2023-03-23T04:36:01.437Z,1.1
2023-03-23T04:37:01.394Z,1.1
2023-03-23T04:38:01.378Z,1.1
2023-03-23T04:39:01.371Z,1.1
2023-03-23T04:40:01.411Z,1.1
2023-03-23T04:41:01.396Z,1.1
2023-03-23T04:42:01.372Z,1.1
2023-03-23T04:43:01.375Z,1.1
2023-03-23T04:44:01.372Z,1.1
2023-03-23T04:45:01.404Z,1.1
2023-03-23T04:46:01.403Z,1.1
2023-03-23T04:47:01.391Z,1.1
2023-03-23T04:48:01.396Z,1.1
2023-03-23T04:49:01.388Z,1.1
2023-03-23T04:50:01.422Z,1.1
2023-03-23T04:51:01.390Z,1.1
2023-03-23T04:52:01.384Z,1.1
2023-03-23T04:53:01.405Z,1.1
2023-03-23T04:54:01.408Z,1.1
2023-03-23T04:55:01.413Z,1.1
2023-03-23T04:56:01.411Z,1.1
2023-03-23T04:57:01.455Z,1.1
2023-03-23T04:58:01.388Z,1.1
2023-03-23T04:59:01.413Z,1.3
2023-03-23T05:00:01.508Z,1.6
2023-03-23T05:01:01.454Z,2
2023-03-23T05:02:14.479Z,2.4
2023-03-23T05:03:01.415Z,2.9
2023-03-23T05:04:01.419Z,3.6
2023-03-23T05:05:01.433Z,4.4
2023-03-23T05:06:01.423Z,5.3
2023-03-23T05:07:01.412Z,6.6
2023-03-23T05:08:01.405Z,8
2023-03-23T05:09:01.412Z,9.7
2023-03-23T05:10:01.490Z,11.5
2023-03-23T05:11:01.426Z,13.6
2023-03-23T05:12:01.434Z,15.5
2023-03-23T05:13:01.431Z,17.6
2023-03-23T05:14:01.405Z,20.1
2023-03-23T05:15:01.452Z,22.7
2023-03-23T05:16:01.430Z,25.6
2023-03-23T05:17:01.413Z,29.9
2023-03-23T05:18:01.409Z,33.6
2023-03-23T05:19:01.429Z,36.6
2023-03-23T05:20:01.457Z,39.3
2023-03-23T05:21:01.430Z,41.2
2023-03-23T05:22:01.418Z,43.8
2023-03-23T05:23:01.415Z,45.4
2023-03-23T05:24:01.449Z,48.7
2023-03-23T05:25:01.447Z,51.1
2023-03-23T05:26:01.443Z,53
2023-03-23T05:27:01.424Z,56.3
2023-03-23T05:28:01.416Z,59
2023-03-23T05:29:02.386Z,63.4
2023-03-23T05:30:01.525Z,67.3
2023-03-23T05:31:01.446Z,72.3
2023-03-23T05:32:01.638Z,77.7
2023-03-23T05:33:01.425Z,83.5
2023-03-23T05:34:01.421Z,90.8
2023-03-23T05:35:01.469Z,98.7
2023-03-23T05:36:01.430Z,107.3
2023-03-23T05:37:01.473Z,115.3
2023-03-23T05:38:02.190Z,122.4
2023-03-23T05:39:01.427Z,133.1
2023-03-23T05:40:01.487Z,143
2023-03-23T05:41:01.439Z,157.4
2023-03-23T05:42:01.457Z,175.2
2023-03-23T05:43:01.432Z,190.5
2023-03-23T05:44:01.430Z,214.8
2023-03-23T05:45:01.498Z,256.9
2023-03-23T05:46:01.448Z,307.4
2023-03-23T05:47:01.468Z,350.6
2023-03-23T05:48:01.442Z,414.5
2023-03-23T05:49:01.439Z,450.8
2023-03-23T05:50:01.480Z,440.1
2023-03-23T05:51:01.436Z,450.8
2023-03-23T05:52:01.443Z,445.4
2023-03-23T05:53:01.441Z,419.6
2023-03-23T05:54:01.465Z,395.2
2023-03-23T05:55:01.441Z,385.9
2023-03-23T05:56:01.465Z,395.2
2023-03-23T05:57:01.467Z,404.8
2023-03-23T05:58:01.515Z,395.2
2023-03-23T05:59:01.476Z,390.5
2023-03-23T06:00:01.467Z,385.9
2023-03-23T06:01:01.487Z,390.5
2023-03-23T06:02:01.639Z,390.5
2023-03-23T06:05:02.158Z,381.3
2023-03-23T06:06:01.386Z,367.8
2023-03-23T06:07:01.387Z,381.3
2023-03-23T06:08:01.389Z,404.8
2023-03-23T06:09:01.388Z,424.6
2023-03-23T06:10:01.410Z,440.1
2023-03-23T06:11:01.406Z,461.7
2023-03-23T06:12:01.412Z,472.9
2023-03-23T06:13:01.384Z,490.1
2023-03-23T06:14:01.376Z,532.9
2023-03-23T06:15:01.390Z,615.1
2023-03-23T06:16:01.401Z,718.6
2023-03-23T06:17:01.397Z,772.1
2023-03-23T06:18:01.399Z,772.1
2023-03-23T06:19:01.380Z,772.1
2023-03-23T06:20:01.405Z,819.6
2023-03-23T06:21:01.423Z,859.8
2023-03-23T06:22:01.403Z,859.8
2023-03-23T06:23:01.411Z,849.6
2023-03-23T06:24:01.386Z,870.2
2023-03-23T06:25:01.434Z,912.8
2023-03-23T06:26:03.974Z,957.5
2023-03-23T06:27:01.408Z,957.5
2023-03-23T06:28:00.328Z,891.2
2023-03-23T06:29:00.323Z,839.5
2023-03-23T06:30:00.339Z,819.6
2023-03-23T06:31:00.344Z,839.5
2023-03-23T06:32:00.331Z,870.2
2023-03-23T06:33:00.323Z,912.8
2023-03-23T06:34:00.329Z,934.9
2023-03-23T06:35:00.355Z,923.7
2023-03-23T06:36:00.389Z,923.7
2023-03-23T06:37:00.328Z,957.5
2023-03-23T06:38:00.345Z,992.5
2023-03-23T06:39:00.329Z,1004.4
2023-03-23T06:40:00.344Z,1004.4
2023-03-23T06:41:00.349Z,1004.4
2023-03-23T06:42:00.353Z,1028.7
2023-03-23T06:43:00.362Z,1053.6
2023-03-23T06:44:00.349Z,1159.4
2023-03-23T06:45:00.354Z,1338.3
2023-03-23T06:46:00.329Z,1544.8
2023-03-23T06:47:00.330Z,1699.9
2023-03-23T06:48:00.352Z,1870.6
2023-03-23T06:49:00.330Z,2108.2
2023-03-23T06:50:00.340Z,2292.3
2023-03-23T06:51:00.360Z,2492.4
2023-03-23T06:52:00.352Z,2583.5
2023-03-23T06:53:00.359Z,2583.5
2023-03-23T06:54:00.340Z,2492.4
2023-03-23T06:55:00.344Z,2433.5
2023-03-23T06:56:00.364Z,2319.9
2023-03-23T06:57:00.351Z,2211.5
2023-03-23T06:58:00.369Z,2159.2
2023-03-23T06:59:00.347Z,2159.2
2023-03-23T07:00:00.346Z,2185.2
2023-03-23T07:01:00.347Z,2211.5
2023-03-23T07:02:00.360Z,2265.1
2023-03-23T07:03:00.375Z,2319.9
2023-03-23T07:04:00.339Z,2376
2023-03-23T07:05:00.407Z,2462.8
2023-03-23T07:06:00.355Z,2492.4
2023-03-23T07:07:00.363Z,2552.8
2023-03-23T07:08:00.383Z,2583.5
2023-03-23T07:09:00.366Z,2742.6
2023-03-23T07:10:00.365Z,2877.1
2023-03-23T07:11:00.392Z,2982.2
2023-03-23T07:12:00.382Z,2911.7
2023-03-23T07:13:00.386Z,2742.6
2023-03-23T07:14:00.364Z,2677.9
2023-03-23T07:15:00.376Z,2710.1
2023-03-23T07:16:00.372Z,2842.8
2023-03-23T07:17:00.381Z,3054.3
2023-03-23T07:18:00.386Z,3281.6
2023-03-23T07:19:00.381Z,3281.6
2023-03-23T07:20:00.394Z,3204.1
2023-03-23T07:21:00.362Z,3091.1
2023-03-23T07:22:00.377Z,2911.7
2023-03-23T07:23:00.364Z,2982.2
2023-03-23T07:24:00.391Z,3204.1
2023-03-23T07:25:00.383Z,3091.1
2023-03-23T07:26:00.409Z,3321.1
2023-03-23T07:27:00.389Z,3611.1
2023-03-23T07:28:00.387Z,3568
2023-03-23T07:29:00.398Z,3442.3
2023-03-23T07:30:00.386Z,3401.4
2023-03-23T07:31:00.389Z,3483.7
2023-03-23T07:32:00.388Z,3654.5
2023-03-23T07:33:00.517Z,3879.6
2023-03-23T07:34:00.386Z,3926.3
2023-03-23T07:35:00.389Z,3973.5
2023-03-23T07:36:00.437Z,4021.3
2023-03-23T07:37:00.413Z,4168.3
2023-03-23T07:38:00.403Z,4320.5
2023-03-23T07:39:00.382Z,4372.4
2023-03-23T07:40:00.389Z,4372.4
2023-03-23T07:41:00.379Z,4320.5
2023-03-23T07:42:00.395Z,4218.4
2023-03-23T07:43:00.422Z,4118.8
2023-03-23T07:44:00.379Z,4069.8
2023-03-23T07:45:00.407Z,4021.3
2023-03-23T07:46:00.391Z,4021.3
2023-03-23T07:47:00.397Z,3973.5
2023-03-23T07:48:01.953Z,3926.3
2023-03-23T07:49:00.409Z,3879.6
2023-03-23T07:50:00.405Z,3742.9
2023-03-23T07:51:00.417Z,3698.5
2023-03-23T07:52:00.408Z,3698.5
2023-03-23T07:53:00.417Z,3742.9
2023-03-23T07:54:01.209Z,3698.5
2023-03-23T07:55:00.408Z,3654.5
2023-03-23T07:56:00.405Z,3611.1
2023-03-23T07:57:00.396Z,3568
2023-03-23T07:58:00.836Z,3442.3
2023-03-23T07:59:00.602Z,3361
2023-03-23T08:00:00.412Z,3281.6
2023-03-23T08:01:00.399Z,3204.1
2023-03-23T08:02:00.423Z,3091.1
2023-03-23T08:03:00.426Z,3018
2023-03-23T08:04:00.428Z,2946.7
2023-03-23T08:05:00.430Z,2946.7
2023-03-23T08:06:00.422Z,2877.1
2023-03-23T08:07:00.426Z,2809
2023-03-23T08:08:00.459Z,2742.6
2023-03-23T08:09:00.407Z,2775.6
2023-03-23T08:10:00.492Z,2946.7
2023-03-23T08:11:00.412Z,3281.6
2023-03-23T08:12:00.428Z,3611.1
2023-03-23T08:13:00.431Z,3879.6
2023-03-23T08:14:00.444Z,4021.3
2023-03-23T08:15:00.457Z,4021.3
2023-03-23T08:16:00.418Z,3973.5
2023-03-23T08:17:00.426Z,3926.3
2023-03-23T08:18:00.432Z,3833.5
2023-03-23T08:19:00.433Z,3833.5
2023-03-23T08:20:00.526Z,3833.5
2023-03-23T08:21:00.441Z,3926.3
2023-03-23T08:22:00.463Z,4021.3
2023-03-23T08:23:00.440Z,4021.3
2023-03-23T08:24:00.423Z,4021.3
2023-03-23T08:25:00.445Z,4069.8
2023-03-23T08:26:00.428Z,4218.4
2023-03-23T08:27:00.440Z,4218.4
2023-03-23T08:28:00.441Z,4269.1
2023-03-23T08:29:00.427Z,4320.5
2023-03-23T08:30:00.431Z,4269.1
2023-03-23T08:31:00.442Z,4269.1
2023-03-23T08:32:00.446Z,4168.3
2023-03-23T08:33:00.428Z,3973.5
2023-03-23T08:34:00.449Z,3833.5
2023-03-23T08:35:00.457Z,3788
2023-03-23T08:36:00.485Z,3879.6
2023-03-23T08:37:00.461Z,3926.3
2023-03-23T08:38:00.441Z,4069.8
2023-03-23T08:39:00.461Z,4218.4
2023-03-23T08:40:00.558Z,4320.5
2023-03-23T08:41:00.446Z,4425
2023-03-23T08:42:00.438Z,4532.1
2023-03-23T08:43:01.269Z,4754.3
2023-03-23T08:44:00.444Z,5169.5
2023-03-23T08:45:00.458Z,4754.3
2023-03-23T08:46:00.519Z,5107.8
2023-03-23T08:47:00.440Z,4869.3
2023-03-23T08:48:00.474Z,4869.3
2023-03-23T08:49:00.468Z,4869.3
2023-03-23T08:50:00.492Z,4987.1
2023-03-23T08:51:00.469Z,4642
2023-03-23T08:52:00.460Z,4168.3
2023-03-23T08:53:00.474Z,3973.5
2023-03-23T08:54:00.455Z,4021.3
2023-03-23T08:55:00.477Z,4218.4
2023-03-23T08:56:00.450Z,4320.5
2023-03-23T08:57:00.485Z,4478.2
2023-03-23T08:58:00.478Z,4532.1
2023-03-23T08:59:01.536Z,4586.8
2023-03-23T09:00:00.507Z,4697.8
2023-03-23T09:01:00.455Z,4811.5
2023-03-23T09:02:00.484Z,5047.1
2023-03-23T09:03:00.464Z,5231.6
2023-03-23T09:04:00.494Z,5294.6
2023-03-23T09:05:00.517Z,5231.6
2023-03-23T09:06:00.481Z,4927.9
2023-03-23T09:07:00.467Z,4754.3
2023-03-23T09:08:00.495Z,4642
2023-03-23T09:09:00.479Z,4642
2023-03-23T09:10:00.498Z,4869.3
2023-03-23T09:11:00.486Z,5294.6
2023-03-23T09:12:00.489Z,5487.9
2023-03-23T09:13:00.494Z,5358.2
2023-03-23T09:14:00.506Z,5231.6
2023-03-23T09:15:00.522Z,5047.1
2023-03-23T09:16:00.827Z,4811.5
2023-03-23T09:17:00.499Z,4532.1
2023-03-23T09:18:01.344Z,4478.2
2023-03-23T09:19:00.512Z,4754.3
2023-03-23T09:20:00.516Z,5169.5
2023-03-23T09:21:00.475Z,5756.7
2023-03-23T09:22:00.498Z,6259.4
2023-03-23T09:23:00.479Z,6487.9
2023-03-23T09:24:00.498Z,6259.4
2023-03-23T09:25:00.848Z,5967.1
2023-03-23T09:26:00.489Z,5896.2
2023-03-23T09:27:00.519Z,6038.9
2023-03-23T09:28:00.489Z,6259.4
2023-03-23T09:29:00.503Z,6259.4
2023-03-23T09:30:00.509Z,5896.2
2023-03-23T09:31:00.511Z,5688.3
2023-03-23T09:32:00.506Z,5553.9
2023-03-23T09:33:00.488Z,5688.3
2023-03-23T09:34:00.530Z,5826.2
2023-03-23T09:35:00.492Z,5620.7
2023-03-23T09:36:00.511Z,5487.9
2023-03-23T09:37:00.548Z,5756.7
2023-03-23T09:38:00.502Z,5896.2
2023-03-23T09:39:00.494Z,5620.7
2023-03-23T09:40:06.732Z,5231.6
2023-03-23T09:41:00.514Z,5358.2
2023-03-23T09:42:00.523Z,5756.7
2023-03-23T09:43:00.518Z,5756.7
2023-03-23T09:44:00.494Z,5826.2
2023-03-23T09:45:00.504Z,6259.4
2023-03-23T09:46:00.522Z,6334.7
2023-03-23T09:47:00.540Z,5487.9
2023-03-23T09:48:01.099Z,4697.8
2023-03-23T09:49:00.523Z,4642
2023-03-23T09:50:00.515Z,5231.6
2023-03-23T09:51:00.504Z,6111.5
2023-03-23T09:52:00.541Z,6334.7
2023-03-23T09:53:00.510Z,5756.7
2023-03-23T09:54:00.510Z,5487.9
2023-03-23T09:55:00.530Z,5826.2
2023-03-23T09:56:00.517Z,5896.2
2023-03-23T09:57:00.534Z,5826.2
2023-03-23T09:58:00.512Z,5487.9
2023-03-23T09:59:00.524Z,5047.1
2023-03-23T10:00:00.523Z,5107.8
2023-03-23T10:01:00.571Z,5487.9
2023-03-23T10:02:00.556Z,6185
2023-03-23T10:03:00.518Z,6645.2
2023-03-23T10:04:00.520Z,6725.2
2023-03-23T10:05:00.531Z,6410.8
2023-03-23T10:06:00.537Z,5896.2
2023-03-23T10:07:00.546Z,5487.9
2023-03-23T10:08:00.568Z,5688.3
2023-03-23T10:09:00.540Z,6038.9
2023-03-23T10:10:00.541Z,6259.4
2023-03-23T10:11:00.528Z,7139.4
2023-03-23T10:12:00.551Z,7312.1
2023-03-23T10:13:00.664Z,7139.4
2023-03-23T10:14:00.529Z,6806
2023-03-23T10:15:00.531Z,6645.2
2023-03-23T10:16:00.603Z,6725.2
2023-03-23T10:17:00.607Z,6806
2023-03-23T10:18:00.578Z,6806
2023-03-23T10:19:00.706Z,6645.2
2023-03-23T10:20:00.569Z,6185
2023-03-23T10:21:00.553Z,5688.3
2023-03-23T10:22:00.777Z,5487.9
2023-03-23T10:23:00.628Z,5553.9
2023-03-23T10:24:00.563Z,5294.6
2023-03-23T10:25:00.737Z,5487.9
2023-03-23T10:26:00.598Z,5756.7
2023-03-23T10:27:00.665Z,5967.1
2023-03-23T10:28:00.651Z,6410.8
2023-03-23T10:29:00.602Z,7312.1
2023-03-23T10:30:01.073Z,7762.9
2023-03-23T10:31:00.672Z,7670.6
2023-03-23T10:32:00.727Z,7762.9
2023-03-23T10:33:00.704Z,7670.6
2023-03-23T10:34:00.754Z,8046.3
2023-03-23T10:35:00.720Z,7670.6
2023-03-23T10:36:00.733Z,7670.6
2023-03-23T10:37:00.837Z,6970.7
2023-03-23T10:38:00.741Z,7054.5
2023-03-23T10:39:00.906Z,7054.5
2023-03-23T10:40:00.749Z,6806
2023-03-23T10:41:01.514Z,6725.2
2023-03-23T10:42:00.796Z,6259.4
2023-03-23T10:43:00.764Z,6111.5
2023-03-23T10:44:00.845Z,6410.8
2023-03-23T10:45:00.889Z,6645.2
2023-03-23T10:46:01.118Z,6566.3
2023-03-23T10:47:00.814Z,6645.2
2023-03-23T10:48:00.838Z,6566.3
2023-03-23T10:49:00.718Z,6259.4
2023-03-23T10:50:00.867Z,5896.2
2023-03-23T10:51:00.694Z,5756.7
2023-03-23T10:52:00.808Z,5896.2
2023-03-23T10:53:00.748Z,6334.7
2023-03-23T10:54:00.716Z,6410.8
2023-03-23T10:55:00.589Z,6259.4
2023-03-23T10:56:00.595Z,6111.5
2023-03-23T10:57:02.519Z,6334.7
2023-03-23T10:58:00.578Z,6725.2
2023-03-23T10:59:00.592Z,6970.7
2023-03-23T11:00:00.582Z,7139.4
2023-03-23T11:01:00.608Z,7054.5
2023-03-23T11:02:00.588Z,7139.4
2023-03-23T11:03:00.583Z,7139.4
2023-03-23T11:04:00.590Z,6970.7
2023-03-23T11:05:03.085Z,6487.9
2023-03-23T11:06:00.603Z,5967.1
2023-03-23T11:07:00.603Z,5620.7
2023-03-23T11:08:00.604Z,5826.2
2023-03-23T11:09:00.588Z,6038.9
2023-03-23T11:10:00.589Z,6038.9
2023-03-23T11:11:00.619Z,6334.7
2023-03-23T11:12:02.551Z,6645.2
2023-03-23T11:13:00.613Z,6566.3
2023-03-23T11:14:00.611Z,7054.5
2023-03-23T11:15:00.598Z,6970.7
2023-03-23T11:16:00.624Z,6806
2023-03-23T11:17:06.939Z,6806
2023-03-23T11:18:00.602Z,6806
2023-03-23T11:19:00.626Z,6645.2
2023-03-23T11:20:00.618Z,6334.7
2023-03-23T11:21:00.619Z,6111.5
2023-03-23T11:22:00.615Z,5896.2
2023-03-23T11:23:00.633Z,5620.7
2023-03-23T11:24:09.731Z,5358.2
2023-03-23T11:25:00.606Z,5358.2
2023-03-23T11:26:00.635Z,5358.2
2023-03-23T11:27:00.633Z,5620.7
2023-03-23T11:28:00.626Z,6038.9
2023-03-23T11:29:00.612Z,6334.7
2023-03-23T11:30:00.613Z,6487.9
2023-03-23T11:31:00.634Z,6806
2023-03-23T11:32:00.613Z,6887.9
2023-03-23T11:33:00.614Z,7054.5
2023-03-23T11:34:06.266Z,7054.5
2023-03-23T11:35:13.785Z,6887.9
2023-03-23T11:36:00.646Z,6806
2023-03-23T11:37:00.628Z,7054.5
2023-03-23T11:38:00.632Z,7489.4
2023-03-23T11:39:00.652Z,7762.9
2023-03-23T11:40:00.648Z,8143.1
2023-03-23T11:41:00.638Z,8645
2023-03-23T11:42:09.344Z,8749
2023-03-23T11:43:00.623Z,8960.7
2023-03-23T11:44:00.623Z,9287.8
2023-03-23T11:45:00.635Z,8854.2
2023-03-23T11:46:00.663Z,8046.3
2023-03-23T11:47:00.637Z,8046.3
2023-03-23T11:48:00.630Z,8340.5
2023-03-23T11:49:00.665Z,8542.3
2023-03-23T11:50:00.649Z,8645
2023-03-23T11:51:00.647Z,8542.3
2023-03-23T11:52:00.635Z,8340.5
2023-03-23T11:53:00.635Z,8440.8
2023-03-23T11:54:00.634Z,8046.3
2023-03-23T11:55:00.662Z,7762.9
2023-03-23T11:56:00.723Z,7579.5
2023-03-23T11:57:00.659Z,6970.7
2023-03-23T11:58:00.637Z,6410.8
2023-03-23T11:59:00.651Z,6334.7
2023-03-23T12:00:00.785Z,6410.8
2023-03-23T12:01:00.658Z,6566.3
2023-03-23T12:02:11.635Z,6487.9
2023-03-23T12:03:00.670Z,6038.9
2023-03-23T12:04:00.645Z,5896.2
2023-03-23T12:05:00.670Z,5967.1
2023-03-23T12:06:00.676Z,6185
2023-03-23T12:07:00.686Z,6185
2023-03-23T12:08:00.664Z,5620.7
2023-03-23T12:09:00.697Z,5231.6
2023-03-23T12:10:00.670Z,5107.8
2023-03-23T12:11:01.936Z,4869.3
2023-03-23T12:12:00.649Z,4697.8
2023-03-23T12:13:00.678Z,4987.1
2023-03-23T12:14:00.650Z,5231.6
2023-03-23T12:15:00.696Z,5487.9
2023-03-23T12:16:00.674Z,5896.2
2023-03-23T12:17:00.651Z,6259.4
2023-03-23T12:18:00.674Z,5826.2
2023-03-23T12:19:00.666Z,5107.8
2023-03-23T12:20:00.696Z,4811.5
2023-03-23T12:21:00.678Z,5169.5
2023-03-23T12:22:00.665Z,5620.7
2023-03-23T12:23:00.665Z,6111.5
2023-03-23T12:24:03.115Z,6185
2023-03-23T12:25:00.691Z,5358.2
2023-03-23T12:26:00.672Z,4697.8
2023-03-23T12:27:00.697Z,4642
2023-03-23T12:28:00.658Z,4478.2
2023-03-23T12:29:00.659Z,4021.3
2023-03-23T12:30:00.636Z,4021.3
2023-03-23T12:31:00.593Z,4320.5
2023-03-23T12:32:00.597Z,4642
2023-03-23T12:33:00.528Z,4869.3
2023-03-23T12:34:00.488Z,5231.6
2023-03-23T12:35:00.453Z,4987.1
2023-03-23T12:36:00.461Z,4532.1
2023-03-23T12:37:00.416Z,4425
2023-03-23T12:38:00.376Z,4372.4
2023-03-23T12:39:00.370Z,4478.2
2023-03-23T12:40:00.351Z,4532.1
2023-03-23T12:41:00.284Z,4168.3
2023-03-23T12:42:00.261Z,3742.9
2023-03-23T12:43:00.275Z,3525.6
2023-03-23T12:44:00.294Z,3361
2023-03-23T12:45:00.268Z,3442.3
2023-03-23T12:46:00.276Z,3483.7
2023-03-23T12:47:00.259Z,3568
2023-03-23T12:48:00.260Z,3698.5
2023-03-23T12:49:00.287Z,3742.9
2023-03-23T12:50:00.308Z,3742.9
2023-03-23T12:51:00.266Z,3742.9
2023-03-23T12:52:00.298Z,3742.9
2023-03-23T12:53:00.287Z,3698.5
2023-03-23T12:54:00.290Z,3788
2023-03-23T12:55:00.270Z,3611.1
2023-03-23T12:56:00.283Z,3321.1
2023-03-23T12:57:00.266Z,3165.8
2023-03-23T12:58:00.279Z,3165.8
2023-03-23T12:59:00.333Z,3401.4
2023-03-23T13:00:00.285Z,3442.3
2023-03-23T13:01:00.282Z,3525.6
2023-03-23T13:02:00.277Z,3568
2023-03-23T13:03:00.267Z,3611.1
2023-03-23T13:04:00.305Z,3788
2023-03-23T13:05:00.272Z,3973.5